Time;durP1;ratioP1;P1;durP2;ratioP2;P2;SDS_P1;SDS_P2;PMS_P1;PMS_P2;Temp;Humidity;BMP_temperature;BMP_pressure;BME280_temperature;BME280_humidity;BME280_pressure;Samples;Min_cycle;Max_cycle;Signal;HPM_P1;HPM_P2
2023/02/22 00:06:35;;;;;;;33.13;12.48;;;7.20;99.90;;;;;;20883094;28;20052;-43
2023/02/22 00:16:36;;;;;;;21.90;12.65;;;7.00;99.90;;;;;;20877354;28;20063;-43
2023/02/22 00:26:38;;;;;;;21.38;10.65;;;6.90;99.90;;;;;;20875948;28;20080;-42
2023/02/22 00:36:47;;;;;;;18.05;10.95;;;6.80;99.90;;;;;;20872096;28;20037;-42
2023/02/22 00:46:48;;;;;;;30.77;10.60;;;6.60;99.90;;;;;;20872927;28;20047;-42
2023/02/22 00:56:50;;;;;;;19.88;11.00;;;6.60;99.90;;;;;;20869286;28;20404;-42
2023/02/22 01:06:52;;;;;;;20.45;11.02;;;6.60;99.90;;;;;;20883112;28;20044;-42
2023/02/22 01:16:55;;;;;;;22.63;11.43;;;6.50;99.90;;;;;;20875506;28;20044;-43
2023/02/22 01:26:56;;;;;;;20.98;12.65;;;6.40;99.90;;;;;;20884841;28;20064;-43
2023/02/22 01:36:58;;;;;;;16.08;10.63;;;6.30;99.90;;;;;;20882842;28;20052;-42
2023/02/22 01:47:02;;;;;;;24.35;12.32;;;6.40;99.90;;;;;;20874422;28;20041;-43
2023/02/22 01:57:23;;;;;;;19.13;10.45;;;6.30;99.90;;;;;;20867089;28;20053;-43
2023/02/22 02:07:24;;;;;;;17.23;9.70;;;6.20;99.90;;;;;;20881795;28;20043;-42
2023/02/22 02:17:25;;;;;;;19.92;9.93;;;6.30;99.90;;;;;;20891729;28;20505;-42
2023/02/22 02:27:45;;;;;;;18.50;10.80;;;6.20;99.90;;;;;;20883441;28;20048;-43
2023/02/22 02:37:50;;;;;;;15.40;9.13;;;6.20;99.90;;;;;;20882218;28;20055;-42
2023/02/22 02:47:57;;;;;;;16.85;8.75;;;6.20;98.30;;;;;;20888042;28;20376;-42
2023/02/22 02:57:59;;;;;;;27.48;13.32;;;6.00;99.90;;;;;;20877665;28;20049;-42
2023/02/22 03:08:26;;;;;;;16.45;10.02;;;5.90;99.90;;;;;;20868239;28;20048;-42
2023/02/22 03:18:57;;;;;;;24.17;11.67;;;5.70;99.90;;;;;;20874485;28;20057;-43
2023/02/22 03:29:03;;;;;;;24.77;10.73;;;5.70;99.90;;;;;;20880273;28;20047;-43
2023/02/22 03:39:11;;;;;;;21.48;11.32;;;5.70;99.90;;;;;;20882718;28;20127;-42
2023/02/22 03:49:22;;;;;;;32.63;12.50;;;5.50;99.90;;;;;;20889667;28;20086;-42
2023/02/22 03:59:26;;;;;;;22.27;12.10;;;5.40;99.90;;;;;;20872439;28;20416;-43
2023/02/22 04:09:27;;;;;;;25.10;13.63;;;5.30;99.90;;;;;;20878157;28;20646;-42
2023/02/22 04:19:28;;;;;;;32.53;13.75;;;5.20;99.90;;;;;;20882036;28;20048;-43
2023/02/22 04:29:29;;;;;;;34.35;13.25;;;5.30;99.90;;;;;;20878659;28;20641;-43
2023/02/22 04:39:30;;;;;;;19.00;12.32;;;5.20;99.90;;;;;;20876000;28;20055;-42
2023/02/22 04:49:31;;;;;;;30.75;13.73;;;5.20;99.90;;;;;;20875175;28;21552;-42
2023/02/22 04:59:32;;;;;;;25.08;13.10;;;5.30;99.90;;;;;;20869832;28;20045;-42
2023/02/22 05:09:33;;;;;;;33.55;16.13;;;5.30;99.90;;;;;;20874413;28;20396;-42
2023/02/22 05:19:34;;;;;;;28.75;14.73;;;5.40;99.90;;;;;;20872845;28;20045;-42
2023/02/22 05:29:37;;;;;;;36.10;14.27;;;5.40;99.90;;;;;;20864365;28;20044;-42
2023/02/22 05:39:38;;;;;;;20.02;12.48;;;5.40;99.90;;;;;;20860977;28;20048;-42
2023/02/22 05:49:39;;;;;;;29.17;13.93;;;5.40;99.90;;;;;;20882108;28;20509;-43
2023/02/22 05:59:41;;;;;;;33.70;16.27;;;5.40;99.90;;;;;;20881862;28;20040;-43
2023/02/22 06:09:42;;;;;;;36.33;15.55;;;5.30;99.90;;;;;;20877027;28;20490;-43
2023/02/22 06:19:43;;;;;;;25.25;12.98;;;5.10;99.90;;;;;;20875156;28;20037;-42
2023/02/22 06:29:46;;;;;;;24.35;11.25;;;5.20;99.90;;;;;;20877555;28;20052;-43
2023/02/22 06:39:47;;;;;;;16.70;9.02;;;5.30;99.90;;;;;;20860506;28;20049;-43
2023/02/22 06:49:55;;;;;;;22.33;11.90;;;5.10;99.90;;;;;;20882017;28;20605;-42
2023/02/22 06:59:56;;;;;;;23.65;13.00;;;5.20;99.90;;;;;;20884056;28;20599;-42
2023/02/22 07:09:57;;;;;;;29.13;14.18;;;5.30;99.90;;;;;;20877031;28;20044;-42
2023/02/22 07:19:58;;;;;;;25.98;12.40;;;5.40;99.90;;;;;;20871874;28;20049;-43
2023/02/22 07:29:59;;;;;;;20.90;12.75;;;5.40;99.90;;;;;;20871902;28;20045;-43
2023/02/22 07:40:00;;;;;;;23.25;12.65;;;5.40;99.90;;;;;;20878267;28;20052;-43
2023/02/22 07:50:01;;;;;;;30.20;14.43;;;5.50;99.90;;;;;;20900038;28;20052;-42
2023/02/22 08:00:03;;;;;;;21.15;12.27;;;5.50;99.90;;;;;;20862622;28;20163;-42
2023/02/22 08:10:06;;;;;;;22.55;12.93;;;5.50;99.90;;;;;;20869951;28;20042;-43
2023/02/22 08:20:08;;;;;;;20.50;11.70;;;5.50;99.90;;;;;;20878523;28;20431;-43
2023/02/22 08:30:29;;;;;;;27.75;11.90;;;5.60;99.90;;;;;;20872569;28;20066;-42
2023/02/22 08:40:33;;;;;;;21.98;10.63;;;5.60;99.90;;;;;;20868907;28;20780;-42
2023/02/22 08:50:34;;;;;;;18.55;11.20;;;5.70;99.90;;;;;;20876829;28;20515;-43
2023/02/22 09:00:37;;;;;;;14.77;9.65;;;5.90;99.90;;;;;;20861375;28;21003;-43
2023/02/22 09:10:39;;;;;;;22.75;11.60;;;5.90;99.90;;;;;;20853225;28;20053;-43
2023/02/22 09:20:40;;;;;;;19.63;10.52;;;6.10;99.90;;;;;;20864512;28;20492;-43
2023/02/22 09:30:41;;;;;;;15.82;8.90;;;6.30;99.90;;;;;;20878309;28;21405;-42
2023/02/22 09:40:50;;;;;;;13.68;7.95;;;6.50;99.90;;;;;;20873160;28;20492;-42
2023/02/22 09:50:57;;;;;;;15.02;7.65;;;6.70;99.90;;;;;;20861869;28;20044;-43
2023/02/22 10:01:30;;;;;;;16.67;9.63;;;6.90;99.90;;;;;;20870607;28;20057;-43
2023/02/22 10:12:07;;;;;;;20.58;10.43;;;7.10;99.90;;;;;;20856109;28;20045;-43
2023/02/22 10:22:42;;;;;;;11.27;7.25;;;7.30;99.90;;;;;;20865706;28;20507;-42
2023/02/22 10:32:45;;;;;;;13.38;7.32;;;7.30;99.90;;;;;;20875575;28;21414;-43
2023/02/22 10:42:46;;;;;;;16.60;7.75;;;7.60;90.40;;;;;;20886828;28;20295;-43
2023/02/22 10:52:48;;;;;;;18.33;8.52;;;7.70;78.90;;;;;;20892827;28;20044;-43
2023/02/22 11:03:22;;;;;;;16.05;8.27;;;7.90;69.80;;;;;;20887232;28;20036;-43
2023/02/22 11:13:42;;;;;;;13.68;8.05;;;8.00;61.00;;;;;;20830292;28;20044;-43
2023/02/22 11:23:43;;;;;;;15.23;8.07;;;8.20;57.90;;;;;;20871646;28;20040;-43
2023/02/22 11:33:54;;;;;;;14.63;7.10;;;8.30;50.50;;;;;;20877503;28;20048;-42
2023/02/22 11:44:23;;;;;;;16.58;7.82;;;8.50;48.10;;;;;;20870241;28;20139;-43
2023/02/22 11:54:54;;;;;;;10.73;6.57;;;8.60;48.10;;;;;;20869007;28;20047;-43
2023/02/22 12:05:23;;;;;;;16.10;7.65;;;8.70;39.20;;;;;;20872209;28;20496;-43
2023/02/22 12:15:45;;;;;;;14.73;8.80;;;8.80;40.70;;;;;;20874488;28;20612;-42
2023/02/22 12:25:57;;;;;;;10.52;6.43;;;8.80;33.60;;;;;;20871361;28;20451;-43
2023/02/22 12:35:59;;;;;;;17.88;7.90;;;9.00;32.10;;;;;;20853012;28;20045;-42
2023/02/22 12:46:17;;;;;;;13.85;6.35;;;9.20;30.20;;;;;;20878516;28;21754;-43
2023/02/22 12:56:25;;;;;;;12.15;7.28;;;9.40;28.10;;;;;;20879200;28;20049;-43
2023/02/22 13:06:47;;;;;;;12.38;6.68;;;9.50;25.70;;;;;;20882949;28;20051;-43
2023/02/22 13:16:51;;;;;;;15.20;5.60;;;9.60;24.20;;;;;;20862918;28;21465;-43
2023/02/22 13:27:24;;;;;;;13.25;6.55;;;9.60;22.50;;;;;;20862263;28;20519;-43
2023/02/22 13:38:00;;;;;;;10.20;6.13;;;9.70;23.20;;;;;;20836665;28;20632;-42
2023/02/22 13:48:20;;;;;;;13.82;6.60;;;9.80;22.90;;;;;;20860966;28;20680;-43
2023/02/22 13:58:21;;;;;;;11.25;7.32;;;9.80;22.00;;;;;;20853173;28;20037;-43
2023/02/22 14:08:29;;;;;;;10.52;5.93;;;9.70;23.50;;;;;;20857969;28;20055;-43
2023/02/22 14:18:44;;;;;;;12.40;6.05;;;9.70;25.50;;;;;;20868569;28;20469;-43
2023/02/22 14:29:08;;;;;;;12.93;6.60;;;9.70;28.20;;;;;;20872602;28;20072;-43
2023/02/22 14:39:31;;;;;;;11.18;6.40;;;9.50;33.00;;;;;;20889342;28;20260;-43
2023/02/22 14:49:37;;;;;;;18.33;9.77;;;9.50;33.60;;;;;;20888375;28;20040;-43
2023/02/22 14:59:49;;;;;;;16.73;9.48;;;9.50;32.70;;;;;;20894073;28;20044;-43
2023/02/22 15:09:50;;;;;;;15.55;9.50;;;9.60;33.90;;;;;;20885631;28;21534;-43
2023/02/22 15:19:52;;;;;;;12.75;7.00;;;9.40;35.10;;;;;;20890612;28;20040;-43
2023/02/22 15:30:03;;;;;;;10.85;6.50;;;9.50;35.40;;;;;;20879961;28;20040;-43
2023/02/22 15:40:13;;;;;;;18.38;8.05;;;9.50;37.20;;;;;;20874169;28;20053;-43
2023/02/22 15:50:17;;;;;;;15.15;8.85;;;9.40;40.90;;;;;;20872021;28;20545;-43
2023/02/22 16:00:32;;;;;;;10.63;6.50;;;9.40;42.50;;;;;;20868788;28;20044;-43
2023/02/22 16:10:33;;;;;;;12.73;6.80;;;9.40;42.50;;;;;;20720436;28;20049;-43
2023/02/22 16:20:35;;;;;;;14.55;7.32;;;9.30;52.20;;;;;;20788604;28;20460;-43
2023/02/22 16:30:38;;;;;;;13.90;8.45;;;9.30;52.10;;;;;;20879285;28;20512;-43
2023/02/22 16:40:45;;;;;;;19.73;12.77;;;9.20;53.60;;;;;;20877087;28;20045;-43
2023/02/22 16:50:48;;;;;;;23.67;11.57;;;9.20;58.40;;;;;;20878980;28;20846;-44
2023/02/22 17:00:49;;;;;;;18.77;9.82;;;9.10;65.20;;;;;;20869158;28;20080;-43
2023/02/22 17:10:54;;;;;;;16.88;9.95;;;9.20;66.30;;;;;;20887322;28;20045;-43
2023/02/22 17:20:55;;;;;;;23.27;13.80;;;9.20;71.80;;;;;;20880814;28;20614;-43
2023/02/22 17:31:01;;;;;;;21.63;12.80;;;9.10;75.30;;;;;;20887782;28;20040;-43
2023/02/22 17:41:05;;;;;;;25.23;12.73;;;9.10;77.80;;;;;;20878199;28;20941;-43
2023/02/22 17:51:09;;;;;;;25.65;14.23;;;9.20;85.90;;;;;;20863455;28;20436;-43
2023/02/22 18:01:25;;;;;;;24.90;16.15;;;9.20;92.70;;;;;;20881536;28;20045;-43
2023/02/22 18:11:31;;;;;;;31.02;17.30;;;9.10;98.70;;;;;;20865326;28;20521;-43
2023/02/22 18:21:32;;;;;;;30.20;15.00;;;9.10;99.90;;;;;;20873811;28;20514;-43
2023/02/22 18:31:33;;;;;;;35.08;13.50;;;9.10;98.80;;;;;;20868220;28;20057;-43
2023/02/22 18:41:34;;;;;;;25.23;16.63;;;9.00;98.90;;;;;;20866630;28;20055;-43
2023/02/22 18:51:35;;;;;;;40.72;15.95;;;8.90;99.90;;;;;;20864240;28;20048;-43
2023/02/22 19:01:38;;;;;;;33.25;16.88;;;8.80;99.90;;;;;;20878262;28;20519;-43
2023/02/22 19:11:43;;;;;;;29.30;15.05;;;8.70;99.90;;;;;;20877133;28;20052;-43
2023/02/22 19:21:44;;;;;;;24.20;15.98;;;8.70;99.90;;;;;;20868970;28;20041;-43
2023/02/22 19:31:49;;;;;;;35.95;16.25;;;8.70;99.90;;;;;;20865568;28;20590;-43
2023/02/22 19:41:52;;;;;;;38.15;19.40;;;8.70;99.90;;;;;;20868397;28;20048;-43
2023/02/22 19:51:56;;;;;;;28.02;17.20;;;8.60;99.90;;;;;;20871644;28;20497;-43
2023/02/22 20:01:57;;;;;;;26.13;13.57;;;8.60;99.90;;;;;;20877983;28;20044;-43
2023/02/22 20:11:58;;;;;;;23.75;14.55;;;8.50;99.90;;;;;;20879090;28;20068;-42
2023/02/22 20:21:59;;;;;;;47.90;21.33;;;8.50;99.90;;;;;;20875760;28;20555;-42
2023/02/22 20:32:01;;;;;;;25.33;15.50;;;8.30;99.90;;;;;;20878412;28;20053;-41
2023/02/22 20:42:05;;;;;;;29.23;15.15;;;8.10;99.90;;;;;;20870449;28;20061;-42
2023/02/22 20:52:06;;;;;;;28.52;16.20;;;8.20;99.90;;;;;;20870442;28;20545;-42
2023/02/22 21:02:09;;;;;;;32.63;15.50;;;8.10;99.90;;;;;;20870037;28;20087;-43
2023/02/22 21:12:12;;;;;;;28.80;17.02;;;8.00;99.90;;;;;;20866692;28;20404;-42
2023/02/22 21:22:13;;;;;;;34.13;13.10;;;7.90;99.90;;;;;;20878708;28;20041;-43
2023/02/22 21:32:14;;;;;;;26.10;12.85;;;7.90;99.90;;;;;;20890912;28;20243;-42
2023/02/22 21:42:16;;;;;;;23.08;13.52;;;7.90;99.90;;;;;;20878907;28;20369;-43
2023/02/22 21:52:17;;;;;;;39.25;17.10;;;7.80;99.90;;;;;;20876759;28;20048;-43
2023/02/22 22:02:18;;;;;;;39.40;16.15;;;7.80;99.90;;;;;;20884146;28;20531;-43
2023/02/22 22:12:21;;;;;;;27.88;14.40;;;7.80;99.90;;;;;;20887394;28;20436;-43
2023/02/22 22:22:23;;;;;;;19.67;11.75;;;7.90;99.90;;;;;;20881676;28;20127;-43
2023/02/22 22:32:23;;;;;;;24.55;12.88;;;7.90;99.90;;;;;;20894203;28;20041;-43
2023/02/22 22:42:25;;;;;;;25.25;11.73;;;7.90;99.90;;;;;;20913252;28;20547;-43
2023/02/22 22:52:30;;;;;;;29.83;13.48;;;7.90;99.90;;;;;;20902633;28;20057;-42
2023/02/22 23:02:31;;;;;;;22.55;12.70;;;7.90;99.90;;;;;;20903116;28;20043;-42
2023/02/22 23:12:32;;;;;;;20.70;12.90;;;7.90;99.90;;;;;;20902138;28;20056;-42
2023/02/22 23:22:33;;;;;;;28.58;12.63;;;7.80;99.90;;;;;;20891665;28;20056;-42
2023/02/22 23:32:34;;;;;;;25.77;14.15;;;7.80;99.90;;;;;;20879721;28;20059;-42
2023/02/22 23:42:35;;;;;;;27.60;15.18;;;7.80;99.90;;;;;;20874611;28;20060;-42
2023/02/22 23:52:36;;;;;;;17.65;12.05;;;7.80;99.90;;;;;;20864097;28;20068;-42
